This is the latest recevied weather packets stored in our database for station/object KJ5FA-10. If no packets are shown the sender has not sent any weather packets the latest 10 day(s).
| Time | Temp. | Humidity | Pressure | Rain* | Wind** | Luminosity | Snow |
|---|---|---|---|---|---|---|---|
| 1777630175 | 11.67° C | 84% | 1017.6 hPa | 0 mm | - | - | - |
| 1777629274 | 11.67° C | 83% | 1017.8 hPa | 0 mm | - | - | - |
| 1777628375 | 11.67° C | 82% | 1017.9 hPa | 0 mm | - | - | - |
| 1777626575 | 11.67° C | 83% | 1017.5 hPa | 0 mm | - | - | - |
| 1777625675 | 11.67° C | 83% | 1017.4 hPa | 0 mm | - | - | - |
| 1777624775 | 11.67° C | 84% | 1017.4 hPa | 0 mm | - | - | - |
| 1777623875 | 11.67° C | 84% | 1017.7 hPa | 0 mm | - | - | - |
| 1777622975 | 11.67° C | 84% | 1017.6 hPa | 0 mm | - | - | - |
| 1777622075 | 11.67° C | 86% | 1017.7 hPa | 0 mm | - | - | - |
| 1777621175 | 12.22° C | 86% | 1017.9 hPa | 0 mm | - | - | - |
| 1777619794 | 12.22° C | 83% | 1017.8 hPa | 0 mm | - | - | - |
| 1777597772 | 15.56° C | 61% | 1016.8 hPa | 0 mm | - | - | - |
| 1777596872 | 16.11° C | 60% | 1016.7 hPa | 0 mm | - | - | - |
| 1777595972 | 16.11° C | 60% | 1016.6 hPa | 0 mm | - | - | - |
| 1777594172 | 16.67° C | 57% | 1016.4 hPa | 0 mm | - | - | - |
| 1777592372 | 17.22° C | 54% | 1016.3 hPa | 0 mm | - | - | - |
| 1777591472 | 17.78° C | 53% | 1016.3 hPa | 0 mm | - | - | - |
| 1777590572 | 17.78° C | 52% | 1016.2 hPa | 0 mm | - | - | - |
| 1777587872 | 18.33° C | 50% | 1016 hPa | 0 mm | - | - | - |
| 1777586972 | 18.33° C | 51% | 1016 hPa | 0 mm | - | - | - |
| 1777586074 | 18.33° C | 50% | 1016.2 hPa | 0 mm | - | - | - |
| 1777585172 | 18.89° C | 51% | 1016.2 hPa | 0 mm | - | - | - |
| 1777584272 | 18.89° C | 50% | 1016.5 hPa | 0 mm | - | - | - |
| 1777583372 | 18.89° C | 48% | 1016.4 hPa | 0 mm | - | - | - |
| 1777582473 | 19.44° C | 50% | 1016.8 hPa | 0 mm | - | - | - |
* Rain latest hour (hover to see other rain measurements)
** Current wind speed in m/s (hover to see current wind gust speed)